Time;durP1;ratioP1;P1;durP2;ratioP2;P2;SDS_P1;SDS_P2;PMS_P1;PMS_P2;Temp;Humidity;BMP_temperature;BMP_pressure;BME280_temperature;BME280_humidity;BME280_pressure;Samples;Min_cycle;Max_cycle;Signal;HPM_P1;HPM_P2
2022/10/23 00:00:32;;;;;;;38.90;35.10;;;;;;;14.47;77.24;100547.86;107747;1292;21987;-83
2022/10/23 00:03:21;;;;;;;36.70;33.10;;;;;;;14.48;77.30;100549.04;107457;1291;22419;-82
2022/10/23 00:05:56;;;;;;;35.50;32.20;;;;;;;14.50;77.22;100546.64;107604;1292;22038;-81
2022/10/23 00:08:32;;;;;;;38.10;34.10;;;;;;;14.52;77.18;100554.61;107316;1291;21928;-82
2022/10/23 00:11:34;;;;;;;38.00;33.80;;;;;;;14.51;77.16;100554.33;107549;1292;23033;-83
2022/10/23 00:14:18;;;;;;;43.70;39.00;;;;;;;14.51;77.17;100557.63;107509;1291;21956;-83
2022/10/23 00:17:11;;;;;;;41.10;36.80;;;;;;;14.51;77.24;100556.91;107529;1292;21936;-83
2022/10/23 00:19:53;;;;;;;41.80;37.00;;;;;;;14.51;77.21;100556.04;107869;1287;21959;-84
2022/10/23 00:22:28;;;;;;;40.90;37.30;;;;;;;14.52;77.19;100556.02;108069;1288;22050;-85
2022/10/23 00:25:32;;;;;;;39.70;35.50;;;;;;;14.52;77.17;100558.81;107791;1291;22818;-83
2022/10/23 00:28:21;;;;;;;41.10;36.10;;;;;;;14.52;77.19;100562.13;107447;1290;23070;-84
2022/10/23 00:31:05;;;;;;;37.30;33.80;;;;;;;14.54;77.24;100563.09;107581;1292;21975;-85
2022/10/23 00:33:43;;;;;;;37.90;34.10;;;;;;;14.57;77.23;100564.19;107686;1292;21981;-85
2022/10/23 00:36:19;;;;;;;40.20;36.20;;;;;;;14.59;77.38;100564.09;107546;1292;23744;-85
2022/10/23 00:38:56;;;;;;;38.70;34.80;;;;;;;14.61;77.50;100562.60;108006;1292;21975;-88
2022/10/23 00:41:32;;;;;;;37.70;34.00;;;;;;;14.63;77.43;100560.19;108002;1291;23141;-86
2022/10/23 00:44:32;;;;;;;38.10;34.20;;;;;;;14.66;77.20;100560.77;107796;1289;21955;-83
2022/10/23 00:47:23;;;;;;;38.30;34.60;;;;;;;14.63;77.28;100556.87;107936;1288;22000;-84
2022/10/23 00:50:00;;;;;;;43.40;34.90;;;;;;;14.65;77.30;100548.73;107899;1289;21974;-84
2022/10/23 00:52:56;;;;;;;38.30;34.60;;;;;;;14.66;77.40;100550.61;107822;1289;21963;-83
2022/10/23 00:55:39;;;;;;;;;;;;;;;;;;;;;
2022/10/23 00:58:27;;;;;;;38.20;34.30;;;;;;;14.69;77.34;100546.77;107479;1292;23679;-83
2022/10/23 01:00:56;;;;;;;37.10;33.50;;;;;;;14.71;77.33;100551.56;107176;1294;21903;-82
2022/10/23 01:03:30;;;;;;;37.80;34.00;;;;;;;14.71;77.31;100552.80;107346;1295;23821;-82
2022/10/23 01:06:14;;;;;;;37.40;33.60;;;;;;;14.71;77.36;100551.77;107017;1296;22017;-85
2022/10/23 01:09:24;;;;;;;42.50;31.30;;;;;;;14.70;77.29;100549.91;106618;1298;21961;-82
2022/10/23 01:12:43;;;;;;;34.70;31.40;;;;;;;14.66;77.35;100548.14;105902;1303;23630;-82
2022/10/23 01:15:51;;;;;;;35.70;31.30;;;;;;;14.66;77.51;100544.85;106341;1301;21964;-84
2022/10/23 01:18:38;;;;;;;32.20;29.10;;;;;;;14.66;77.52;100547.13;106288;1301;23657;-83
2022/10/23 01:21:30;;;;;;;32.00;28.80;;;;;;;14.66;77.46;100548.52;106506;1301;21961;-83
2022/10/23 01:24:21;;;;;;;33.10;29.80;;;;;;;14.63;77.48;100545.15;106705;1294;22127;-84
2022/10/23 01:27:19;;;;;;;31.30;28.20;;;;;;;14.63;77.50;100552.35;107044;1291;22400;-84
2022/10/23 01:30:14;;;;;;;30.50;27.20;;;;;;;14.60;77.51;100549.86;107025;1295;21949;-80
2022/10/23 01:33:00;;;;;;;29.20;26.30;;;;;;;14.61;77.56;100553.69;107252;1290;22611;-82
2022/10/23 01:35:59;;;;;;;29.70;26.70;;;;;;;14.61;77.58;100557.67;106783;1298;21981;-82
2022/10/23 01:38:44;;;;;;;28.30;25.40;;;;;;;14.60;77.52;100551.78;106749;1291;21975;-82
2022/10/23 01:41:45;;;;;;;26.70;24.20;;;;;;;14.56;77.63;100550.91;106724;1297;21975;-83
2022/10/23 01:44:45;;;;;;;26.70;24.20;;;;;;;14.54;77.65;100548.91;106701;1289;21973;-83
2022/10/23 01:47:22;;;;;;;28.90;25.80;;;;;;;14.55;77.64;100553.41;106675;1296;22766;-82
2022/10/23 01:50:11;;;;;;;30.60;27.50;;;;;;;14.54;77.70;100553.83;107007;1292;23601;-81
2022/10/23 01:53:11;;;;;;;29.40;26.70;;;;;;;14.53;77.71;100558.25;107286;1292;21962;-82
2022/10/23 01:55:43;;;;;;;29.40;26.30;;;;;;;14.52;77.56;100556.88;107198;1292;23597;-83
2022/10/23 01:58:22;;;;;;;28.40;25.50;;;;;;;14.47;77.34;100553.09;107288;1291;21958;-82
2022/10/23 02:00:58;;;;;;;30.70;27.20;;;;;;;14.41;77.33;100550.80;107616;1287;23677;-83
2022/10/23 02:03:34;;;;;;;29.50;26.70;;;;;;;14.37;77.40;100552.56;107723;1289;21941;-81
2022/10/23 02:06:08;;;;;;;30.50;27.40;;;;;;;14.38;77.60;100557.10;107710;1288;21940;-82
2022/10/23 02:08:38;;;;;;;26.80;23.60;;;;;;;14.39;77.66;100558.41;107666;1288;21981;-84
2022/10/23 02:11:17;;;;;;;28.80;25.80;;;;;;;14.39;77.64;100554.02;107624;1288;21944;-83
2022/10/23 02:14:14;;;;;;;26.70;24.30;;;;;;;14.37;77.46;100548.70;107747;1288;21948;-81
2022/10/23 02:16:58;;;;;;;26.30;24.00;;;;;;;14.33;77.35;100550.17;107558;1288;21925;-83
2022/10/23 02:19:48;;;;;;;28.30;25.00;;;;;;;14.27;77.27;100553.05;107431;1287;23120;-82
2022/10/23 02:22:36;;;;;;;26.80;24.20;;;;;;;14.25;77.31;100555.27;107380;1292;23106;-83
2022/10/23 02:25:32;;;;;;;24.80;22.50;;;;;;;14.21;77.29;100558.96;107343;1292;21960;-84
2022/10/23 02:28:09;;;;;;;24.50;22.30;;;;;;;14.18;77.42;100558.75;106766;1298;22919;-85
2022/10/23 02:30:48;;;;;;;23.10;21.00;;;;;;;14.20;77.34;100558.51;106619;1297;21941;-84
2022/10/23 02:33:26;;;;;;;24.50;22.10;;;;;;;14.19;77.16;100559.27;106925;1296;22355;-82
2022/10/23 02:36:01;;;;;;;23.00;20.80;;;;;;;14.16;77.14;100559.20;106603;1297;21968;-84
2022/10/23 02:38:41;;;;;;;23.20;21.20;;;;;;;14.15;77.03;100559.27;106899;1294;21971;-82
2022/10/23 02:41:26;;;;;;;22.70;20.30;;;;;;;14.14;77.09;100562.97;107270;1294;21977;-84
2022/10/23 02:44:33;;;;;;;24.00;21.50;;;;;;;14.13;77.12;100564.45;107288;1290;22488;-85
2022/10/23 02:47:20;;;;;;;23.60;21.30;;;;;;;14.09;77.06;100565.70;106582;1299;22045;-84
2022/10/23 02:50:24;;;;;;;25.00;22.60;;;;;;;14.08;76.87;100567.86;106155;1300;21973;-84
2022/10/23 02:53:14;;;;;;;22.90;20.80;;;;;;;14.03;76.88;100571.02;106864;1295;24413;-82
2022/10/23 02:56:09;;;;;;;28.10;25.50;;;;;;;14.01;76.76;100574.97;107074;1294;23641;-84
2022/10/23 02:59:14;;;;;;;31.30;28.40;;;;;;;13.97;76.60;100581.13;107125;1294;23701;-83
2022/10/23 03:02:02;;;;;;;29.70;26.90;;;;;;;13.86;76.41;100582.38;106171;1300;23748;-83
2022/10/23 03:04:35;;;;;;;36.20;28.90;;;;;;;13.76;76.64;100588.98;106305;1300;23119;-82
2022/10/23 03:07:17;;;;;;;30.60;27.60;;;;;;;13.73;76.84;100589.81;106269;1300;21992;-83
2022/10/23 03:09:50;;;;;;;31.90;29.00;;;;;;;13.71;76.74;100590.05;106153;1300;22016;-82
2022/10/23 03:12:31;;;;;;;33.10;30.00;;;;;;;13.66;76.50;100596.23;106152;1300;21967;-82
2022/10/23 03:15:06;;;;;;;30.80;28.00;;;;;;;13.63;76.73;100597.77;106385;1300;22060;-82
2022/10/23 03:17:41;;;;;;;32.10;28.90;;;;;;;13.59;76.51;100601.46;106140;1297;21965;-82
2022/10/23 03:20:23;;;;;;;32.30;29.30;;;;;;;13.54;76.58;100599.95;106099;1298;21966;-81
2022/10/23 03:22:56;;;;;;;36.10;32.50;;;;;;;13.50;76.64;100596.30;106207;1298;23126;-82
2022/10/23 03:25:27;;;;;;;37.70;34.20;;;;;;;13.49;76.82;100590.89;106557;1298;23809;-81
2022/10/23 03:27:59;;;;;;;34.90;31.40;;;;;;;13.48;76.66;100590.28;106954;1298;21960;-81
2022/10/23 03:30:31;;;;;;;37.30;33.90;;;;;;;13.43;76.61;100592.03;106581;1298;21958;-83
2022/10/23 03:33:07;;;;;;;34.50;31.40;;;;;;;13.41;76.64;100591.81;106805;1298;22113;-83
2022/10/23 03:35:39;;;;;;;31.70;28.80;;;;;;;13.37;76.55;100591.14;106763;1298;24496;-82
2022/10/23 03:38:16;;;;;;;28.80;26.10;;;;;;;13.29;76.53;100594.61;106711;1295;21938;-83
2022/10/23 03:40:46;;;;;;;29.20;26.60;;;;;;;13.23;76.43;100593.95;107034;1289;23084;-82
2022/10/23 03:43:18;;;;;;;29.10;26.20;;;;;;;13.20;76.54;100597.42;107683;1289;21956;-81
2022/10/23 03:45:50;;;;;;;;;;;;;;;13.16;76.52;100599.71;107608;1288;23054;-83
2022/10/23 03:48:20;;;;;;;28.30;25.70;;;;;;;13.05;76.71;100607.20;107603;1285;23733;-82
2022/10/23 03:50:53;;;;;;;28.10;25.60;;;;;;;12.97;76.59;100608.90;107171;1292;21955;-82
2022/10/23 03:53:22;;;;;;;28.20;25.70;;;;;;;12.94;76.65;100609.06;107100;1292;21948;-82
2022/10/23 03:55:53;;;;;;;25.90;22.80;;;;;;;12.91;76.67;100610.23;107199;1292;22008;-81
2022/10/23 03:58:26;;;;;;;23.20;20.80;;;;;;;12.88;76.80;100606.34;106966;1292;21981;-82
2022/10/23 04:00:57;;;;;;;22.60;20.40;;;;;;;12.86;76.79;100602.75;107033;1292;23771;-81
2022/10/23 04:03:28;;;;;;;21.20;19.20;;;;;;;12.83;76.86;100606.73;107090;1288;23829;-82
2022/10/23 04:05:56;;;;;;;20.70;18.70;;;;;;;12.83;76.81;100608.33;107114;1292;21947;-81
2022/10/23 04:08:29;;;;;;;21.10;18.90;;;;;;;12.80;76.75;100604.27;107233;1289;22095;-82
2022/10/23 04:10:59;;;;;;;21.50;19.50;;;;;;;12.77;76.79;100605.06;107680;1289;22108;-83
2022/10/23 04:13:36;;;;;;;21.60;19.20;;;;;;;12.74;76.75;100606.80;107133;1292;21989;-81
2022/10/23 04:16:05;;;;;;;18.80;17.00;;;;;;;12.71;76.75;100604.64;106765;1298;24462;-81
2022/10/23 04:18:47;;;;;;;17.80;16.30;;;;;;;12.67;76.84;100603.94;106496;1298;23784;-82
2022/10/23 04:21:18;;;;;;;20.30;18.30;;;;;;;12.65;76.85;100601.73;106607;1299;22024;-82
2022/10/23 04:23:56;;;;;;;19.20;17.00;;;;;;;12.65;76.85;100603.50;106681;1298;23893;-82
2022/10/23 04:26:25;;;;;;;16.90;15.20;;;;;;;12.63;76.73;100603.23;106714;1300;21974;-82
2022/10/23 04:28:55;;;;;;;17.60;15.80;;;;;;;12.59;76.66;100601.80;106487;1297;23127;-82
2022/10/23 04:31:27;;;;;;;20.30;14.60;;;;;;;12.57;76.66;100604.52;106773;1295;23050;-81
2022/10/23 04:34:00;;;;;;;16.60;15.00;;;;;;;12.55;76.67;100605.81;107080;1289;22169;-83
2022/10/23 04:36:48;;;;;;;;;;;;;;;;;;;;;
2022/10/23 04:39:30;;;;;;;16.20;14.70;;;;;;;12.53;76.92;100609.23;107673;1288;22041;-82
2022/10/23 04:41:59;;;;;;;17.10;14.40;;;;;;;12.53;76.81;100609.04;107560;1288;23604;-81
2022/10/23 04:44:37;;;;;;;15.10;13.60;;;;;;;12.55;76.88;100611.25;107684;1289;22043;-82
2022/10/23 04:47:10;;;;;;;15.50;14.00;;;;;;;12.55;76.81;100608.11;107667;1288;21960;-81
2022/10/23 04:49:53;;;;;;;15.30;13.80;;;;;;;12.54;76.85;100609.19;107169;1292;22195;-82
2022/10/23 04:52:44;;;;;;;19.70;17.10;;;;;;;12.54;76.72;100608.83;106654;1298;21963;-82
2022/10/23 04:55:28;;;;;;;;;;;;;;;12.53;76.83;100605.93;106118;1302;21866;-83
2022/10/23 04:58:24;;;;;;;23.40;20.70;;;;;;;12.50;76.76;100603.22;106033;1303;22016;-82
2022/10/23 05:01:10;;;;;;;;;;;;;;;;;;;;;
2022/10/23 05:03:56;;;;;;;25.60;23.00;;;;;;;12.47;76.57;100600.92;105968;1301;22636;-81
2022/10/23 05:06:46;;;;;;;25.70;22.20;;;;;;;12.43;76.40;100601.27;105743;1309;21962;-84
2022/10/23 05:09:54;;;;;;;30.40;22.30;;;;;;;12.39;76.52;100600.20;105870;1303;22025;-82
2022/10/23 05:12:34;;;;;;;28.40;22.80;;;;;;;12.37;76.48;100602.39;106163;1299;23908;-82
2022/10/23 05:15:16;;;;;;;22.10;19.50;;;;;;;12.34;76.23;100606.36;106678;1295;21954;-81
2022/10/23 05:17:54;;;;;;;20.20;18.10;;;;;;;12.30;76.16;100604.26;106581;1295;21971;-83
2022/10/23 05:20:41;;;;;;;21.60;19.50;;;;;;;12.25;76.26;100606.54;107520;1298;22233;-87
2022/10/23 05:23:23;;;;;;;22.60;18.60;;;;;;;12.23;76.10;100606.63;107281;1298;21960;-87
2022/10/23 05:26:19;;;;;;;24.50;21.90;;;;;;;12.21;76.20;100604.94;107520;1300;23049;-86
2022/10/23 05:28:58;;;;;;;26.70;23.50;;;;;;;12.25;76.29;100606.73;106287;1301;23145;-85
2022/10/23 05:31:35;;;;;;;28.90;23.40;;;;;;;12.25;76.19;100604.77;106590;1298;21936;-84
2022/10/23 05:34:25;;;;;;;25.50;21.60;;;;;;;12.24;76.36;100602.55;106715;1298;22011;-83
2022/10/23 05:37:00;;;;;;;25.30;21.20;;;;;;;12.22;76.12;100600.01;106984;1297;21960;-84
2022/10/23 05:39:38;;;;;;;27.00;24.40;;;;;;;12.22;76.26;100607.02;106802;1297;23632;-84
2022/10/23 05:42:19;;;;;;;22.80;20.30;;;;;;;12.21;76.20;100615.06;106768;1298;23625;-84
2022/10/23 05:44:51;;;;;;;23.60;20.40;;;;;;;12.22;76.34;100611.38;107065;1289;21951;-83
2022/10/23 05:47:53;;;;;;;21.90;19.70;;;;;;;12.21;76.37;100607.41;107391;1290;22469;-84
2022/10/23 05:51:19;;;;;;;;;;;;;;;;;;;;;
2022/10/23 05:54:05;;;;;;;20.60;16.30;;;;;;;12.18;76.45;100616.80;107349;1292;23311;-83
2022/10/23 05:56:58;;;;;;;18.20;15.20;;;;;;;12.16;76.43;100622.09;107258;1292;21967;-83
2022/10/23 06:00:06;;;;;;;;;;;;;;;;;;;;;
2022/10/23 06:02:46;;;;;;;18.80;16.60;;;;;;;12.16;76.61;100624.88;107142;1295;21952;-85
2022/10/23 06:05:36;;;;;;;17.00;14.80;;;;;;;12.19;76.76;100624.58;106830;1293;23728;-84
2022/10/23 06:08:27;;;;;;;18.10;16.20;;;;;;;12.21;76.60;100632.00;106661;1295;21963;-82
2022/10/23 06:11:14;;;;;;;17.60;15.50;;;;;;;12.20;76.46;100634.65;106692;1295;23696;-84
2022/10/23 06:13:51;;;;;;;19.70;17.60;;;;;;;12.18;76.56;100634.36;106785;1295;22733;-83
2022/10/23 06:16:39;;;;;;;23.20;19.40;;;;;;;12.19;76.73;100635.58;106321;1300;22733;-84
2022/10/23 06:19:26;;;;;;;25.20;18.40;;;;;;;12.21;76.79;100641.59;106296;1300;23750;-84
2022/10/23 06:21:58;;;;;;;25.10;20.50;;;;;;;12.26;76.82;100639.98;106872;1292;23712;-84
2022/10/23 06:24:43;;;;;;;20.60;17.50;;;;;;;12.31;76.85;100642.05;106925;1295;21984;-84
2022/10/23 06:27:25;;;;;;;19.60;17.40;;;;;;;12.34;76.72;100639.15;106935;1295;21970;-84
2022/10/23 06:30:03;;;;;;;20.80;18.40;;;;;;;12.41;76.71;100635.73;106642;1298;22811;-85
2022/10/23 06:32:44;;;;;;;23.80;21.30;;;;;;;12.40;76.57;100632.96;107070;1295;23597;-84
2022/10/23 06:35:21;;;;;;;33.70;27.40;;;;;;;12.44;76.76;100632.99;107161;1292;22117;-83
2022/10/23 06:37:57;;;;;;;33.10;25.00;;;;;;;12.51;76.74;100639.17;107193;1292;21954;-84
2022/10/23 06:40:52;;;;;;;;;;;;;;;;;;;;;
2022/10/23 06:44:01;;;;;;;30.50;24.70;;;;;;;12.63;76.95;100635.69;107511;1292;21949;-84
2022/10/23 06:51:21;;;;;;;37.40;26.60;;;;;;;12.81;76.83;100642.59;107122;1298;21984;-85
2022/10/23 06:54:22;;;;;;;51.30;37.40;;;;;;;12.91;76.62;100643.59;106568;1303;23115;-87
2022/10/23 06:57:37;;;;;;;86.10;53.70;;;;;;;13.01;76.40;100645.09;106458;1304;22005;-86
2022/10/23 07:00:56;;;;;;;;;;;;;;;;;;;;;
2022/10/23 07:04:14;;;;;;;;;;;;;;;;;;;;;
2022/10/23 07:07:16;;;;;;;;;;;;;;;;;;;;;
2022/10/23 07:10:28;;;;;;;26.00;23.20;;;;;;;13.28;75.86;100651.08;107333;1298;23136;-86
2022/10/23 07:13:48;;;;;;;25.20;22.50;;;;;;;13.35;75.74;100648.73;108263;1292;21829;-86
2022/10/23 07:17:50;;;;;;;;;;;;;;;;;;;;;
2022/10/23 07:21:09;;;;;;;23.40;21.00;;;;;;;13.54;75.32;100646.98;106373;1300;22010;-79
2022/10/23 07:23:54;;;;;;;22.40;17.40;;;;;;;13.60;75.14;100645.98;106035;1301;21961;-81
2022/10/23 07:27:00;;;;;;;32.40;28.00;;;;;;;13.66;75.21;100642.92;105887;1307;21981;-83
2022/10/23 07:30:06;;;;;;;19.10;17.00;;;;;;;13.68;74.82;100641.62;105725;1306;22071;-83
2022/10/23 07:32:47;;;;;;;26.30;19.70;;;;;;;13.70;74.55;100636.65;105919;1307;21977;-83
2022/10/23 07:36:00;;;;;;;26.20;23.00;;;;;;;13.76;74.66;100645.46;106476;1299;22000;-81
2022/10/23 07:38:41;;;;;;;25.80;22.30;;;;;;;13.84;74.40;100649.30;105819;1304;21936;-79
2022/10/23 07:41:29;;;;;;;27.10;20.50;;;;;;;13.85;74.14;100645.02;105959;1304;21961;-80
2022/10/23 07:44:30;;;;;;;23.50;20.40;;;;;;;13.88;74.02;100640.86;105537;1307;21992;-82
2022/10/23 07:47:05;;;;;;;22.70;19.40;;;;;;;13.91;73.88;100640.38;105529;1310;23625;-81
2022/10/23 07:49:32;;;;;;;23.00;20.80;;;;;;;13.95;73.86;100642.31;105634;1310;22766;-81
2022/10/23 07:52:06;;;;;;;18.40;16.60;;;;;;;13.99;73.55;100640.37;105445;1310;22058;-83
2022/10/23 07:54:58;;;;;;;31.00;24.50;;;;;;;14.09;74.02;100640.77;105666;1310;21980;-81
2022/10/23 07:57:34;;;;;;;19.20;17.20;;;;;;;14.31;74.63;100637.61;105609;1308;23090;-81
2022/10/23 08:00:26;;;;;;;20.50;17.30;;;;;;;14.50;74.19;100641.92;105986;1303;21971;-81
2022/10/23 08:03:15;;;;;;;19.90;17.30;;;;;;;14.60;73.45;100646.34;106112;1303;21955;-81
2022/10/23 08:05:59;;;;;;;24.60;19.80;;;;;;;14.68;72.97;100639.70;106118;1301;21967;-81
2022/10/23 08:08:38;;;;;;;16.40;14.60;;;;;;;14.70;72.53;100643.08;106321;1298;21970;-81
2022/10/23 08:11:25;;;;;;;19.70;17.40;;;;;;;14.73;72.44;100646.06;106839;1298;24447;-81
2022/10/23 08:14:09;;;;;;;16.60;14.70;;;;;;;14.79;72.40;100648.05;106726;1297;21959;-83
2022/10/23 08:16:52;;;;;;;16.00;14.40;;;;;;;14.86;72.26;100645.76;106813;1298;21959;-81
2022/10/23 08:19:48;;;;;;;16.50;13.80;;;;;;;14.94;72.10;100643.95;106824;1289;24337;-81
2022/10/23 08:22:19;;;;;;;16.90;15.20;;;;;;;15.03;71.91;100645.94;106756;1297;23700;-82
2022/10/23 08:25:03;;;;;;;37.70;33.80;;;;;;;15.10;71.69;100652.57;106935;1292;24294;-82
2022/10/23 08:28:14;;;;;;;21.90;18.40;;;;;;;15.15;71.42;100654.59;106917;1292;21957;-82
2022/10/23 08:30:57;;;;;;;24.20;20.50;;;;;;;15.24;71.39;100655.75;106636;1298;23106;-81
2022/10/23 08:33:35;;;;;;;25.20;18.40;;;;;;;15.35;71.18;100660.24;106801;1298;21959;-81
2022/10/23 08:36:22;;;;;;;17.10;13.20;;;;;;;15.45;70.93;100660.91;106915;1295;22661;-82
2022/10/23 08:38:57;;;;;;;19.20;14.30;;;;;;;15.51;70.50;100661.98;106821;1295;21956;-81
2022/10/23 08:41:41;;;;;;;20.90;14.90;;;;;;;15.56;70.26;100664.91;106881;1298;21962;-79
2022/10/23 08:44:44;;;;;;;23.50;20.90;;;;;;;15.60;70.02;100657.68;106729;1295;23850;-81
2022/10/23 08:47:35;;;;;;;28.10;24.10;;;;;;;15.66;69.94;100657.70;106859;1295;22310;-82
2022/10/23 08:50:40;;;;;;;29.30;21.50;;;;;;;15.68;69.60;100666.04;107307;1292;21960;-82
2022/10/23 08:53:26;;;;;;;29.80;21.80;;;;;;;15.71;69.61;100670.27;106812;1298;22004;-83
2022/10/23 08:56:16;;;;;;;57.20;49.80;;;;;;;15.75;69.27;100675.84;106851;1289;21958;-81
2022/10/23 08:59:04;;;;;;;18.80;16.80;;;;;;;15.85;69.73;100677.79;106793;1298;24434;-81
2022/10/23 09:01:46;;;;;;;19.20;16.80;;;;;;;16.00;69.91;100683.98;106751;1298;22006;-80
2022/10/23 09:04:21;;;;;;;15.50;13.30;;;;;;;16.15;69.77;100682.79;106537;1298;22019;-82
2022/10/23 09:07:38;;;;;;;14.80;11.90;;;;;;;16.28;69.31;100688.52;106609;1298;22257;-82
2022/10/23 09:10:37;;;;;;;17.30;11.70;;;;;;;16.34;68.59;100688.35;106821;1297;23629;-82
2022/10/23 09:14:26;;;;;;;18.90;13.30;;;;;;;16.28;67.78;100689.61;107242;1292;22048;-82
2022/10/23 09:17:24;;;;;;;15.70;11.10;;;;;;;16.25;67.91;100691.86;106776;1298;22105;-82
2022/10/23 09:20:09;;;;;;;15.50;10.80;;;;;;;16.26;67.83;100690.05;106619;1298;21989;-82
2022/10/23 09:23:18;;;;;;;18.60;12.50;;;;;;;16.22;67.63;100687.66;107040;1298;23716;-83
2022/10/23 09:25:55;;;;;;;35.60;27.30;;;;;;;16.14;67.50;100691.27;107198;1295;21965;-82
2022/10/23 09:29:06;;;;;;;39.00;31.70;;;;;;;16.04;67.43;100695.66;107800;1293;23815;-82
2022/10/23 09:32:04;;;;;;;24.30;20.70;;;;;;;16.02;67.93;100694.55;107124;1295;21963;-81
2022/10/23 09:34:34;;;;;;;23.50;16.60;;;;;;;16.08;68.29;100698.08;105675;1295;2087223;-82
2022/10/23 09:37:21;;;;;;;19.00;15.50;;;;;;;16.17;68.31;100698.80;107238;1295;21972;-81
2022/10/23 09:40:01;;;;;;;26.50;21.20;;;;;;;16.25;68.38;100700.34;106943;1295;21952;-80
2022/10/23 09:42:36;;;;;;;24.30;20.10;;;;;;;16.36;68.59;100699.87;107109;1295;23088;-80
2022/10/23 09:45:44;;;;;;;21.80;18.90;;;;;;;16.50;68.63;100698.03;107134;1285;23086;-83
2022/10/23 09:48:19;;;;;;;22.00;15.90;;;;;;;16.71;68.55;100696.83;107098;1295;21962;-81
2022/10/23 09:50:51;;;;;;;21.90;18.50;;;;;;;16.85;67.75;100692.00;107369;1286;21944;-79
2022/10/23 09:53:32;;;;;;;18.10;14.50;;;;;;;16.85;66.50;100695.16;107900;1286;21947;-82
2022/10/23 09:56:25;;;;;;;18.60;14.80;;;;;;;16.70;66.02;100695.10;107336;1292;22033;-80
2022/10/23 09:59:18;;;;;;;19.80;14.00;;;;;;;16.62;66.48;100694.16;107219;1291;21968;-83
2022/10/23 10:02:03;;;;;;;17.40;13.40;;;;;;;16.64;66.81;100697.76;107322;1292;21950;-80
2022/10/23 10:04:40;;;;;;;20.50;15.70;;;;;;;16.70;66.81;100699.86;107386;1292;23665;-81
2022/10/23 10:07:25;;;;;;;28.10;14.40;;;;;;;16.72;66.63;100697.46;107319;1292;23685;-82
2022/10/23 10:10:12;;;;;;;20.60;13.80;;;;;;;16.75;66.69;100692.00;107339;1292;22845;-82
2022/10/23 10:12:52;;;;;;;15.70;14.00;;;;;;;16.85;66.71;100688.15;107494;1292;22427;-82
2022/10/23 10:15:39;;;;;;;20.50;13.40;;;;;;;17.04;67.18;100685.80;107939;1286;21954;-82
2022/10/23 10:18:37;;;;;;;16.70;11.00;;;;;;;17.35;67.35;100686.39;108024;1286;21967;-82
2022/10/23 10:21:44;;;;;;;14.80;13.30;;;;;;;17.78;67.44;100689.92;108017;1286;23063;-82
2022/10/23 10:24:22;;;;;;;16.20;11.80;;;;;;;18.18;66.45;100692.46;107727;1286;23072;-80
2022/10/23 10:27:52;;;;;;;16.30;9.80;;;;;;;18.44;65.55;100690.30;107717;1286;22744;-81
2022/10/23 10:30:23;;;;;;;13.10;9.80;;;;;;;18.65;64.49;100686.81;107353;1292;22014;-81
2022/10/23 10:33:01;;;;;;;15.80;10.90;;;;;;;18.72;63.35;100682.67;107198;1292;21953;-81
2022/10/23 10:35:51;;;;;;;16.20;13.30;;;;;;;18.68;62.53;100681.81;107121;1292;22138;-80
2022/10/23 10:38:47;;;;;;;11.60;9.40;;;;;;;18.66;62.43;100682.19;107159;1292;21969;-80
2022/10/23 10:41:49;;;;;;;12.70;9.30;;;;;;;18.60;62.15;100675.87;107084;1292;22028;-81
2022/10/23 10:44:25;;;;;;;16.90;10.30;;;;;;;18.69;62.89;100673.84;107319;1292;22752;-81
2022/10/23 10:47:32;;;;;;;15.40;9.90;;;;;;;18.82;62.42;100674.60;107367;1290;22000;-80
2022/10/23 10:51:01;;;;;;;24.40;10.40;;;;;;;18.96;61.99;100674.02;107039;1292;23081;-81
2022/10/23 10:54:08;;;;;;;13.30;9.10;;;;;;;18.93;61.33;100679.17;107298;1292;21954;-81
2022/10/23 10:56:44;;;;;;;11.90;9.20;;;;;;;18.81;60.84;100674.98;107275;1293;23616;-81
2022/10/23 10:59:26;;;;;;;9.70;7.30;;;;;;;18.71;60.82;100671.64;107071;1295;23601;-83
2022/10/23 11:02:12;;;;;;;12.70;7.90;;;;;;;18.62;60.98;100673.10;107066;1295;23794;-81
2022/10/23 11:04:51;;;;;;;14.10;8.30;;;;;;;18.60;61.59;100669.03;106843;1295;24398;-81
2022/10/23 11:07:33;;;;;;;12.50;8.40;;;;;;;18.64;61.71;100664.48;107575;1287;22080;-80
2022/10/23 11:10:18;;;;;;;10.80;8.20;;;;;;;18.64;61.41;100659.00;107796;1286;22719;-79
2022/10/23 11:13:01;;;;;;;10.30;7.50;;;;;;;18.63;61.38;100657.89;107790;1286;21947;-85
2022/10/23 11:15:41;;;;;;;11.90;7.40;;;;;;;18.60;61.31;100657.68;107603;1286;21944;-82
2022/10/23 11:18:23;;;;;;;10.30;8.00;;;;;;;18.60;61.28;100656.29;107658;1286;22041;-80
2022/10/23 11:21:23;;;;;;;14.90;9.60;;;;;;;18.62;61.53;100652.45;107734;1285;21940;-80
2022/10/23 11:24:17;;;;;;;17.00;9.70;;;;;;;18.67;61.57;100644.57;108004;1286;22014;-81
2022/10/23 11:27:08;;;;;;;15.70;9.10;;;;;;;18.69;61.31;100637.52;107917;1286;22091;-80
2022/10/23 11:30:12;;;;;;;13.80;9.80;;;;;;;18.70;61.21;100634.67;107687;1287;22279;-80
2022/10/23 11:33:12;;;;;;;11.50;7.30;;;;;;;18.65;61.14;100634.11;107313;1292;21950;-81
2022/10/23 11:36:21;;;;;;;13.30;8.50;;;;;;;18.62;60.99;100630.95;107080;1295;21942;-82
2022/10/23 11:38:57;;;;;;;6.50;5.90;;;;;;;18.58;61.02;100630.38;106540;1298;21976;-82
2022/10/23 11:41:32;;;;;;;10.50;9.40;;;;;;;18.57;60.92;100625.10;106401;1298;21970;-78
2022/10/23 11:44:44;;;;;;;10.30;7.50;;;;;;;18.61;61.06;100624.13;106664;1296;21987;-80
2022/10/23 11:47:41;;;;;;;9.20;6.40;;;;;;;18.62;60.73;100617.56;106494;1298;22236;-79
2022/10/23 11:50:15;;;;;;;8.10;6.90;;;;;;;18.59;60.52;100615.67;106566;1298;21970;-80
2022/10/23 11:53:06;;;;;;;13.50;8.10;;;;;;;18.58;60.70;100615.23;106437;1298;21968;-80
2022/10/23 11:56:04;;;;;;;12.00;6.10;;;;;;;18.59;60.93;100617.08;106449;1298;22070;-80
2022/10/23 11:58:40;;;;;;;8.10;7.10;;;;;;;18.57;60.58;100614.76;106460;1298;21961;-81
2022/10/23 12:01:41;;;;;;;13.90;6.60;;;;;;;18.54;60.61;100613.88;106438;1298;22914;-82
2022/10/23 12:04:27;;;;;;;13.80;12.40;;;;;;;18.56;60.89;100609.00;106416;1296;21973;-82
2022/10/23 12:07:04;;;;;;;12.00;9.80;;;;;;;18.58;60.45;100605.84;106883;1298;21998;-80
2022/10/23 12:10:01;;;;;;;9.70;6.90;;;;;;;18.59;60.38;100607.05;106672;1298;21959;-78
2022/10/23 12:12:39;;;;;;;6.70;5.60;;;;;;;18.56;60.07;100604.57;106770;1298;23803;-85
2022/10/23 12:15:20;;;;;;;7.90;6.20;;;;;;;18.53;59.87;100601.75;106853;1292;22722;-81
2022/10/23 12:18:15;;;;;;;7.20;5.50;;;;;;;18.51;59.92;100594.35;107327;1292;22862;-84
2022/10/23 12:21:02;;;;;;;10.00;6.40;;;;;;;18.46;59.87;100589.55;107157;1292;23055;-83
2022/10/23 12:24:33;;;;;;;13.80;6.60;;;;;;;18.47;59.94;100585.59;107295;1292;21950;-82
2022/10/23 12:27:44;;;;;;;9.50;6.30;;;;;;;18.44;59.82;100584.08;107223;1284;23605;-81
2022/10/23 12:30:39;;;;;;;13.60;6.30;;;;;;;18.35;59.65;100582.89;106174;1303;23638;-85
2022/10/23 12:33:22;;;;;;;9.40;6.30;;;;;;;18.32;59.87;100586.07;106135;1304;22672;-85
2022/10/23 12:36:23;;;;;;;11.30;5.90;;;;;;;18.30;60.03;100584.27;106619;1298;22133;-84
2022/10/23 12:38:57;;;;;;;11.10;5.30;;;;;;;18.30;60.24;100582.30;106063;1303;22006;-84
2022/10/23 12:41:35;;;;;;;10.20;5.80;;;;;;;18.37;60.49;100582.39;105968;1303;21942;-83
2022/10/23 12:44:11;;;;;;;8.80;5.20;;;;;;;18.41;60.51;100580.73;105584;1305;21972;-82
2022/10/23 12:47:21;;;;;;;15.50;8.50;;;;;;;18.60;59.72;100575.75;105375;1313;544768;-88
2022/10/23 12:49:55;;;;;;;14.50;9.60;;;;;;;18.51;59.51;100573.05;107713;1288;22934;-84
2022/10/23 12:52:26;;;;;;;9.30;7.10;;;;;;;18.48;59.63;100574.30;107969;1284;23729;-83